KABR

Aberdeen Regional Airport

Aberdeen, South Dakota, USA
METAR KABR 160053Z AUTO 24007KT 10SM CLR M01/M04 A2992 RMK AO2 SLP147 T10111039
Observed Flight Rules
Dec-16 @ 00:53 UTC (26 minutes ago) Visual Flight Rules
Wind Visibility Clouds
240° at 7 knots 10 miles
  • Clear skies
Temperatures Readings
Current -1°C / 30°F
Dewpoint -4°C / 25°F
Humidity 80%
Altimeter 29.92" Hg
Pressure 1014.7 hPa
Elevation 397
METAR KABR 160053Z AUTO 24007KT 10SM CLR M01/M04 A2992 RMK AO2 SLP147 T10111039
Observed Flight Rules
Dec-16 @ 00:53 UTC
(26 minutes ago)
VFR
Wind Visibility
240° at 7 knots 10 miles
Clouds
  • Clear skies
Temperature Dewpoint
-1°C / 30°F -4°C / 25°F
Humidity Altimeter Pressure
80% 29.92" Hg 1014.7 hPa